createdAt,value
2018-08-03T00:00:36.517Z,48.70
2018-08-03T00:01:39.908Z,48.80
2018-08-03T00:02:43.284Z,48.80
2018-08-03T00:03:46.667Z,48.80
2018-08-03T00:04:50.064Z,48.80
2018-08-03T00:05:55.243Z,48.80
2018-08-03T00:06:58.626Z,48.90
2018-08-03T00:08:01.995Z,48.90
2018-08-03T00:09:07.891Z,49.00
2018-08-03T00:10:12.233Z,49.00
2018-08-03T00:11:16.635Z,49.00
2018-08-03T00:12:20.047Z,49.00
2018-08-03T00:13:23.431Z,49.00
2018-08-03T00:14:26.823Z,49.10
2018-08-03T00:15:31.335Z,49.20
2018-08-03T00:16:34.746Z,49.20
2018-08-03T00:17:38.115Z,49.30
2018-08-03T00:18:41.487Z,49.90
2018-08-03T00:19:44.881Z,49.40
2018-08-03T00:20:49.144Z,49.50
2018-08-03T00:21:52.553Z,49.60
2018-08-03T00:22:55.927Z,49.70
2018-08-03T00:23:59.538Z,49.70
2018-08-03T00:25:04.018Z,49.70
2018-08-03T00:26:08.459Z,49.70
2018-08-03T00:27:11.862Z,49.70
2018-08-03T00:28:15.236Z,49.80
2018-08-03T00:29:18.614Z,49.80
2018-08-03T00:30:23.256Z,49.90
2018-08-03T00:31:27.586Z,49.90
2018-08-03T00:32:30.995Z,50.00
2018-08-03T00:33:34.359Z,49.90
2018-08-03T00:34:37.738Z,50.00
2018-08-03T00:36:45.139Z,50.00
2018-08-03T00:37:48.511Z,50.00
2018-08-03T00:39:54.975Z,50.00
2018-08-03T00:42:02.288Z,50.00
2018-08-03T00:43:05.659Z,50.10
2018-08-03T00:44:09.051Z,50.10
2018-08-03T00:45:13.562Z,50.10
2018-08-03T00:46:17.978Z,50.20
2018-08-03T00:47:21.391Z,50.20
2018-08-03T00:48:24.762Z,50.30
2018-08-03T00:49:28.154Z,50.30
2018-08-03T00:50:32.688Z,50.40
2018-08-03T00:51:36.088Z,50.40
2018-08-03T00:52:39.499Z,50.50
2018-08-03T00:54:46.008Z,50.60
2018-08-03T00:55:50.537Z,50.70
2018-08-03T00:56:53.955Z,50.70
2018-08-03T00:57:57.327Z,51.20
2018-08-03T00:59:00.694Z,50.80
2018-08-03T01:00:05.174Z,50.90
2018-08-03T01:01:09.649Z,50.90
2018-08-03T01:02:13.051Z,50.90
2018-08-03T01:03:16.443Z,51.00
2018-08-03T01:04:19.867Z,51.10
2018-08-03T01:05:24.783Z,51.20
2018-08-03T01:06:29.532Z,51.20
2018-08-03T01:07:32.903Z,51.30
2018-08-03T01:08:36.268Z,51.40
2018-08-03T01:09:39.654Z,51.40
2018-08-03T01:10:44.032Z,51.50
2018-08-03T01:11:47.424Z,51.60
2018-08-03T01:12:50.795Z,51.60
2018-08-03T01:13:54.179Z,51.60
2018-08-03T01:18:07.783Z,51.80
2018-08-03T01:19:13.299Z,51.80
2018-08-03T01:20:18.612Z,51.80
2018-08-03T01:21:23.769Z,51.80
2018-08-03T01:22:27.158Z,51.90
2018-08-03T01:23:30.841Z,51.90
2018-08-03T01:24:34.249Z,52.40
2018-08-03T01:25:38.871Z,51.90
2018-08-03T01:26:42.277Z,51.90
2018-08-03T01:28:48.924Z,52.00
2018-08-03T01:29:52.312Z,51.90
2018-08-03T01:30:57.423Z,52.10
2018-08-03T01:32:00.808Z,52.10
2018-08-03T01:33:04.180Z,52.00
2018-08-03T01:34:07.555Z,52.10
2018-08-03T01:35:12.069Z,52.10
2018-08-03T01:36:16.502Z,52.10
2018-08-03T01:37:19.912Z,52.20
2018-08-03T01:38:23.280Z,52.30
2018-08-03T01:39:26.849Z,52.30
2018-08-03T01:40:31.323Z,52.30
2018-08-03T01:41:34.735Z,52.30
2018-08-03T01:42:38.099Z,52.40
2018-08-03T01:43:41.463Z,52.40
2018-08-03T01:46:51.895Z,52.60
2018-08-03T01:47:55.263Z,52.60
2018-08-03T01:48:58.631Z,52.60
2018-08-03T01:50:02.023Z,52.70
2018-08-03T01:51:06.495Z,52.70
2018-08-03T01:52:09.920Z,52.60
2018-08-03T01:53:13.287Z,52.70
2018-08-03T01:54:16.663Z,52.70
2018-08-03T01:55:21.254Z,52.70
2018-08-03T01:56:25.743Z,52.80
2018-08-03T01:57:29.154Z,52.90
2018-08-03T01:58:32.519Z,53.00
2018-08-03T01:59:35.908Z,53.00
2018-08-03T02:00:40.388Z,53.00
2018-08-03T02:01:43.796Z,53.10
2018-08-03T02:02:47.163Z,53.30
2018-08-03T02:03:50.568Z,53.30
2018-08-03T02:04:54.028Z,53.40
2018-08-03T02:05:57.908Z,53.40
2018-08-03T02:07:01.283Z,53.40
2018-08-03T02:08:04.647Z,53.40
2018-08-03T02:09:09.123Z,53.50
2018-08-03T02:10:13.551Z,53.50
2018-08-03T02:11:18.843Z,53.50
2018-08-03T02:12:22.252Z,53.50
2018-08-03T02:13:25.740Z,53.60
2018-08-03T02:14:29.111Z,53.60
2018-08-03T02:15:33.577Z,53.60
2018-08-03T02:18:43.206Z,53.70
2018-08-03T02:19:46.575Z,53.70
2018-08-03T02:20:51.092Z,53.70
2018-08-03T02:21:54.499Z,53.80
2018-08-03T02:22:57.889Z,53.70
2018-08-03T02:24:01.255Z,53.80
2018-08-03T02:25:06.063Z,53.80
2018-08-03T02:26:10.565Z,53.90
2018-08-03T02:27:14.008Z,53.90
2018-08-03T02:28:17.391Z,53.80
2018-08-03T02:29:20.763Z,53.90
2018-08-03T02:30:25.353Z,53.90
2018-08-03T02:31:29.923Z,53.90
2018-08-03T02:32:33.317Z,53.90
2018-08-03T02:33:36.688Z,54.00
2018-08-03T02:34:40.056Z,54.00
2018-08-03T02:36:47.291Z,54.50
2018-08-03T02:37:51.148Z,54.00
2018-08-03T02:38:54.675Z,54.10
2018-08-03T02:39:58.060Z,54.10
2018-08-03T02:41:02.416Z,54.20
2018-08-03T02:42:05.880Z,54.30
2018-08-03T02:43:09.279Z,54.40
2018-08-03T02:44:12.643Z,54.50
2018-08-03T02:45:17.109Z,54.60
2018-08-03T02:46:21.633Z,54.70
2018-08-03T02:47:25.107Z,54.80
2018-08-03T02:48:28.499Z,54.90
2018-08-03T02:49:31.881Z,54.90
2018-08-03T02:50:36.302Z,54.90
2018-08-03T02:51:39.700Z,54.90
2018-08-03T02:52:43.080Z,55.00
2018-08-03T02:53:46.475Z,55.00
2018-08-03T02:54:49.855Z,55.10
2018-08-03T02:55:54.259Z,55.10
2018-08-03T02:56:57.671Z,55.20
2018-08-03T02:58:01.051Z,55.30
2018-08-03T02:59:04.455Z,55.30
2018-08-03T03:00:09.035Z,55.30
2018-08-03T03:01:13.556Z,55.40
2018-08-03T03:02:16.943Z,55.40
2018-08-03T03:03:20.355Z,55.50
2018-08-03T03:04:23.767Z,55.60
2018-08-03T03:05:28.032Z,55.60
2018-08-03T03:06:31.503Z,55.70
2018-08-03T03:07:34.888Z,55.70
2018-08-03T03:08:38.266Z,55.70
2018-08-03T03:09:41.675Z,55.80
2018-08-03T03:10:46.106Z,55.70
2018-08-03T03:11:49.511Z,55.70
2018-08-03T03:13:55.988Z,56.20
2018-08-03T03:14:59.386Z,56.10
2018-08-03T03:16:03.954Z,55.90
2018-08-03T03:18:10.415Z,56.30
2018-08-03T03:19:13.791Z,56.10
2018-08-03T03:20:18.283Z,56.10
2018-08-03T03:21:22.707Z,56.20
2018-08-03T03:22:26.079Z,56.30
2018-08-03T03:23:29.459Z,56.40
2018-08-03T03:24:32.843Z,56.40
2018-08-03T03:25:37.632Z,56.50
2018-08-03T03:26:41.047Z,56.60
2018-08-03T03:27:44.436Z,56.60
2018-08-03T03:28:47.811Z,56.60
2018-08-03T03:29:51.191Z,56.60
2018-08-03T03:30:55.771Z,56.60
2018-08-03T03:31:59.171Z,56.60
2018-08-03T03:33:02.552Z,56.60
2018-08-03T03:35:10.032Z,56.60
2018-08-03T03:36:16.163Z,56.70
2018-08-03T03:38:22.683Z,56.70
2018-08-03T03:39:26.059Z,56.70
2018-08-03T03:40:31.278Z,56.70
2018-08-03T03:41:34.703Z,56.70
2018-08-03T03:42:38.079Z,56.80
2018-08-03T03:43:41.460Z,56.80
2018-08-03T03:44:44.835Z,56.80
2018-08-03T03:45:49.315Z,57.30
2018-08-03T03:46:52.746Z,56.80
2018-08-03T03:47:56.143Z,56.90
2018-08-03T03:48:59.523Z,56.80
2018-08-03T03:50:02.923Z,56.90
2018-08-03T03:51:07.904Z,57.40
2018-08-03T03:52:11.327Z,56.90
2018-08-03T03:53:14.700Z,56.90
2018-08-03T03:54:18.088Z,57.00
2018-08-03T03:55:22.620Z,57.00
2018-08-03T03:57:29.987Z,57.00
2018-08-03T03:58:33.384Z,57.00
2018-08-03T03:59:36.763Z,57.00
2018-08-03T04:00:41.200Z,57.10
2018-08-03T04:01:44.607Z,57.10
2018-08-03T04:02:48.004Z,57.10
2018-08-03T04:04:54.960Z,57.10
2018-08-03T04:05:59.425Z,57.20
2018-08-03T04:07:02.848Z,57.20
2018-08-03T04:08:06.235Z,57.20
2018-08-03T04:09:11.751Z,57.20
2018-08-03T04:10:16.283Z,57.30
2018-08-03T04:11:20.958Z,57.30
2018-08-03T04:12:24.399Z,57.40
2018-08-03T04:13:27.791Z,57.50
2018-08-03T04:14:31.167Z,57.50
2018-08-03T04:15:35.566Z,57.50
2018-08-03T04:16:39.151Z,57.60
2018-08-03T04:17:42.538Z,57.70
2018-08-03T04:18:45.971Z,57.70
2018-08-03T04:19:49.363Z,57.80
2018-08-03T04:20:54.955Z,57.80
2018-08-03T04:21:58.342Z,57.90
2018-08-03T04:23:01.727Z,58.00
2018-08-03T04:24:05.124Z,58.10
2018-08-03T04:25:09.380Z,58.10
2018-08-03T04:26:14.016Z,58.20
2018-08-03T04:27:17.411Z,58.30
2018-08-03T04:28:20.800Z,58.40
2018-08-03T04:29:24.169Z,58.40
2018-08-03T04:30:28.703Z,58.90
2018-08-03T04:32:35.205Z,58.50
2018-08-03T04:33:38.603Z,58.50
2018-08-03T04:34:41.979Z,58.50
2018-08-03T04:35:47.048Z,58.60
2018-08-03T04:37:53.543Z,58.70
2018-08-03T04:38:57.007Z,58.60
2018-08-03T04:40:00.324Z,58.60
2018-08-03T04:41:04.779Z,58.60
2018-08-03T04:42:08.207Z,58.60
2018-08-03T04:43:11.586Z,58.60
2018-08-03T04:44:15.027Z,58.60
2018-08-03T04:45:19.449Z,58.50
2018-08-03T04:46:23.577Z,58.60
2018-08-03T04:47:26.971Z,58.60
2018-08-03T04:48:30.358Z,58.50
2018-08-03T04:49:33.759Z,58.50
2018-08-03T04:50:38.205Z,58.50
2018-08-03T04:51:41.602Z,59.00
2018-08-03T04:52:44.979Z,58.50
2018-08-03T04:53:48.374Z,58.60
2018-08-03T04:54:51.767Z,58.60
2018-08-03T04:55:56.309Z,58.50
2018-08-03T04:56:59.710Z,58.60
2018-08-03T04:58:03.095Z,58.70
2018-08-03T04:59:06.471Z,58.70
2018-08-03T05:00:10.861Z,58.80
2018-08-03T05:01:15.425Z,58.80
2018-08-03T05:02:18.820Z,58.80
2018-08-03T05:03:22.246Z,59.40
2018-08-03T05:04:25.651Z,59.00
2018-08-03T05:05:30.146Z,59.00
2018-08-03T05:06:33.735Z,59.10
2018-08-03T05:07:37.219Z,59.20
2018-08-03T05:08:40.603Z,59.20
2018-08-03T05:09:43.979Z,59.30
2018-08-03T05:10:48.557Z,59.30
2018-08-03T05:11:51.946Z,59.30
2018-08-03T05:12:55.323Z,59.30
2018-08-03T05:15:01.784Z,59.30
2018-08-03T05:16:06.160Z,59.30
2018-08-03T05:17:09.755Z,59.10
2018-08-03T05:18:13.123Z,59.30
2018-08-03T05:19:16.489Z,59.30
2018-08-03T05:20:20.932Z,59.30
2018-08-03T05:21:24.841Z,59.20
2018-08-03T05:24:34.416Z,59.40
2018-08-03T05:25:38.736Z,59.40
2018-08-03T05:26:42.147Z,59.50
2018-08-03T05:27:45.531Z,59.50
2018-08-03T05:28:48.911Z,59.50
2018-08-03T05:29:52.287Z,59.50
2018-08-03T05:30:56.822Z,59.50
2018-08-03T05:32:00.251Z,59.50
2018-08-03T05:33:03.637Z,59.50
2018-08-03T05:35:11.235Z,59.70
2018-08-03T05:36:15.584Z,59.60
2018-08-03T05:37:19.019Z,59.60
2018-08-03T05:38:22.379Z,59.70
2018-08-03T05:39:25.767Z,59.70
2018-08-03T05:40:30.076Z,59.70
2018-08-03T05:41:33.474Z,59.80
2018-08-03T05:42:36.949Z,59.80
2018-08-03T05:43:40.267Z,59.80
2018-08-03T05:45:48.639Z,60.50
2018-08-03T05:46:52.031Z,59.50
2018-08-03T05:47:55.427Z,59.90
2018-08-03T05:48:58.805Z,59.90
2018-08-03T05:50:02.186Z,59.90
2018-08-03T05:51:06.568Z,59.90
2018-08-03T05:52:09.990Z,59.90
2018-08-03T05:53:13.371Z,60.00
2018-08-03T05:54:16.755Z,60.00
2018-08-03T05:55:21.489Z,60.00
2018-08-03T05:56:26.039Z,60.00
2018-08-03T05:57:29.437Z,60.00
2018-08-03T05:58:32.831Z,60.00
2018-08-03T05:59:36.215Z,60.00
2018-08-03T06:00:40.699Z,60.00
2018-08-03T06:01:44.109Z,60.00
2018-08-03T06:02:47.528Z,60.00
2018-08-03T06:03:50.916Z,60.00
2018-08-03T06:04:54.368Z,60.10
2018-08-03T06:05:59.102Z,60.10
2018-08-03T06:07:02.532Z,60.10
2018-08-03T06:08:06.134Z,60.10
2018-08-03T06:11:19.435Z,60.40
2018-08-03T06:12:22.839Z,60.20
2018-08-03T06:13:26.211Z,60.20
2018-08-03T06:14:29.611Z,60.20
2018-08-03T06:15:34.021Z,60.90
2018-08-03T06:16:37.419Z,60.20
2018-08-03T06:17:40.967Z,60.10
2018-08-03T06:18:44.359Z,60.10
2018-08-03T06:19:47.871Z,60.00
2018-08-03T06:20:52.371Z,60.00
2018-08-03T06:21:55.792Z,60.00
2018-08-03T06:22:59.176Z,60.00
2018-08-03T06:24:02.546Z,60.00
2018-08-03T06:25:07.717Z,60.00
2018-08-03T06:26:12.171Z,60.00
2018-08-03T06:28:18.635Z,60.00
2018-08-03T06:29:22.016Z,60.30
2018-08-03T06:30:27.134Z,59.80
2018-08-03T06:31:31.187Z,59.80
2018-08-03T06:32:34.819Z,59.80
2018-08-03T06:33:38.201Z,59.70
2018-08-03T06:34:41.575Z,59.70
2018-08-03T06:35:46.939Z,59.70
2018-08-03T06:36:50.356Z,59.70
2018-08-03T06:37:53.765Z,59.70
2018-08-03T06:38:57.139Z,59.70
2018-08-03T06:40:00.523Z,59.70
2018-08-03T06:41:05.194Z,59.70
2018-08-03T06:42:08.600Z,59.60
2018-08-03T06:43:12.059Z,59.50
2018-08-03T06:44:15.443Z,59.50
2018-08-03T06:45:20.298Z,59.40
2018-08-03T06:46:24.899Z,59.40
2018-08-03T06:47:28.307Z,59.40
2018-08-03T06:49:34.779Z,59.40
2018-08-03T06:50:39.323Z,59.30
2018-08-03T06:51:42.836Z,59.30
2018-08-03T06:52:46.221Z,59.30
2018-08-03T06:53:49.683Z,59.30
2018-08-03T06:54:53.040Z,59.30
2018-08-03T06:55:58.621Z,59.30
2018-08-03T06:57:02.063Z,59.30
2018-08-03T06:58:05.455Z,59.30
2018-08-03T06:59:08.823Z,59.30
2018-08-03T07:00:15.945Z,59.30
2018-08-03T07:01:20.993Z,59.30
2018-08-03T07:02:24.395Z,59.30
2018-08-03T07:03:27.955Z,59.40
2018-08-03T07:04:31.371Z,59.30
2018-08-03T07:05:35.782Z,59.20
2018-08-03T07:06:39.187Z,59.20
2018-08-03T07:07:42.563Z,59.10
2018-08-03T07:08:45.947Z,59.10
2018-08-03T07:09:49.328Z,59.10
2018-08-03T07:10:53.696Z,59.00
2018-08-03T07:11:57.160Z,59.10
2018-08-03T07:13:00.531Z,59.10
2018-08-03T07:14:03.918Z,59.10
2018-08-03T07:15:08.346Z,59.10
2018-08-03T07:16:12.892Z,59.00
2018-08-03T07:17:16.300Z,59.00
2018-08-03T07:18:19.673Z,58.90
2018-08-03T07:19:23.039Z,58.80
2018-08-03T07:20:28.072Z,58.70
2018-08-03T07:21:31.421Z,58.60
2018-08-03T07:22:34.795Z,58.60
2018-08-03T07:23:38.197Z,58.60
2018-08-03T07:24:41.588Z,58.50
2018-08-03T07:25:46.003Z,58.50
2018-08-03T07:26:49.411Z,58.50
2018-08-03T07:27:52.800Z,58.50
2018-08-03T07:28:56.187Z,58.50
2018-08-03T07:29:59.571Z,58.50
2018-08-03T07:31:04.524Z,58.50
2018-08-03T07:33:11.015Z,58.40
2018-08-03T07:34:14.387Z,58.40
2018-08-03T07:35:18.898Z,58.40
2018-08-03T07:36:24.089Z,58.30
2018-08-03T07:37:27.523Z,58.20
2018-08-03T07:38:30.894Z,58.10
2018-08-03T07:39:34.270Z,58.00
2018-08-03T07:40:38.649Z,58.00
2018-08-03T07:41:42.063Z,58.00
2018-08-03T07:42:45.467Z,58.00
2018-08-03T07:43:48.839Z,57.90
2018-08-03T07:44:52.263Z,57.90
2018-08-03T07:45:56.808Z,57.90
2018-08-03T07:47:00.215Z,57.90
2018-08-03T07:48:03.607Z,57.80
2018-08-03T07:50:11.050Z,57.90
2018-08-03T07:51:15.725Z,57.90
2018-08-03T07:52:19.132Z,57.80
2018-08-03T07:53:22.503Z,57.80
2018-08-03T07:54:25.880Z,57.80
2018-08-03T07:55:30.780Z,57.90
2018-08-03T07:56:34.195Z,57.80
2018-08-03T07:57:37.592Z,57.90
2018-08-03T07:58:40.963Z,57.90
2018-08-03T07:59:44.335Z,57.80
2018-08-03T08:00:49.125Z,57.80
2018-08-03T08:01:52.519Z,58.30
2018-08-03T08:02:55.899Z,57.80
2018-08-03T08:03:59.732Z,57.80
2018-08-03T08:06:07.388Z,57.70
2018-08-03T08:07:10.827Z,57.60
2018-08-03T08:08:14.207Z,57.50
2018-08-03T08:09:17.579Z,57.40
2018-08-03T08:11:25.731Z,57.40
2018-08-03T08:12:29.191Z,57.40
2018-08-03T08:13:32.581Z,57.40
2018-08-03T08:14:35.959Z,57.40
2018-08-03T08:15:40.557Z,57.50
2018-08-03T08:16:43.968Z,57.50
2018-08-03T08:17:47.358Z,57.50
2018-08-03T08:18:50.731Z,57.60
2018-08-03T08:19:54.099Z,57.60
2018-08-03T08:20:59.570Z,57.60
2018-08-03T08:22:02.963Z,57.70
2018-08-03T08:23:06.579Z,57.70
2018-08-03T08:24:09.967Z,57.70
2018-08-03T08:25:14.287Z,57.70
2018-08-03T08:26:18.621Z,57.70
2018-08-03T08:27:22.051Z,57.70
2018-08-03T08:28:25.447Z,57.60
2018-08-03T08:29:28.817Z,57.60
2018-08-03T08:30:33.296Z,57.60
2018-08-03T08:31:36.761Z,57.60
2018-08-03T08:32:40.080Z,57.50
2018-08-03T08:33:43.464Z,57.50
2018-08-03T08:34:46.837Z,57.50
2018-08-03T08:36:54.934Z,57.50
2018-08-03T08:37:58.317Z,57.50
2018-08-03T08:40:06.253Z,57.40
2018-08-03T08:41:10.781Z,57.40
2018-08-03T08:42:14.183Z,57.30
2018-08-03T08:43:17.579Z,57.30
2018-08-03T08:44:20.955Z,57.20
2018-08-03T08:45:25.761Z,57.20
2018-08-03T08:46:29.572Z,57.20
2018-08-03T08:47:32.945Z,57.30
2018-08-03T08:48:36.333Z,57.30
2018-08-03T08:49:39.711Z,57.30
2018-08-03T08:50:44.048Z,57.30
2018-08-03T08:51:47.478Z,57.30
2018-08-03T08:52:50.866Z,57.20
2018-08-03T08:53:54.287Z,57.20
2018-08-03T08:54:57.673Z,57.20
2018-08-03T08:56:02.024Z,57.10
2018-08-03T08:57:05.591Z,57.00
2018-08-03T08:58:08.957Z,57.00
2018-08-03T08:59:12.351Z,57.00
2018-08-03T09:00:17.215Z,56.90
2018-08-03T09:01:21.789Z,56.80
2018-08-03T09:02:25.212Z,56.70
2018-08-03T09:03:28.591Z,56.70
2018-08-03T09:04:32.011Z,56.70
2018-08-03T09:05:36.373Z,56.80
2018-08-03T09:06:39.794Z,56.60
2018-08-03T09:07:43.544Z,56.50
2018-08-03T09:08:47.006Z,56.60
2018-08-03T09:09:50.399Z,56.60
2018-08-03T09:10:54.921Z,56.60
2018-08-03T09:11:58.328Z,56.60
2018-08-03T09:13:01.722Z,56.70
2018-08-03T09:15:09.693Z,56.60
2018-08-03T09:16:14.538Z,56.60
2018-08-03T09:17:17.932Z,56.50
2018-08-03T09:18:21.329Z,56.50
2018-08-03T09:19:24.703Z,56.50
2018-08-03T09:20:29.082Z,56.40
2018-08-03T09:21:32.475Z,56.40
2018-08-03T09:22:35.848Z,56.70
2018-08-03T09:23:39.235Z,56.30
2018-08-03T09:24:42.641Z,56.30
2018-08-03T09:25:47.187Z,56.40
2018-08-03T09:26:50.567Z,56.30
2018-08-03T09:27:53.943Z,56.20
2018-08-03T09:28:57.311Z,56.10
2018-08-03T09:30:00.699Z,56.10
2018-08-03T09:31:05.189Z,55.50
2018-08-03T09:32:08.587Z,56.00
2018-08-03T09:33:11.975Z,56.00
2018-08-03T09:34:15.369Z,55.90
2018-08-03T09:35:19.943Z,55.90
2018-08-03T09:36:24.355Z,55.80
2018-08-03T09:37:27.695Z,55.70
2018-08-03T09:38:31.067Z,55.70
2018-08-03T09:40:38.594Z,55.90
2018-08-03T09:41:42.016Z,55.60
2018-08-03T09:42:45.402Z,55.60
2018-08-03T09:43:48.801Z,55.50
2018-08-03T09:44:52.163Z,55.40
2018-08-03T09:45:56.752Z,55.30
2018-08-03T09:47:00.183Z,54.90
2018-08-03T09:48:03.601Z,54.90
2018-08-03T09:50:11.248Z,54.90
2018-08-03T09:51:15.545Z,54.90
2018-08-03T09:53:22.155Z,54.90
2018-08-03T09:54:25.595Z,54.90
2018-08-03T09:55:30.024Z,54.80
2018-08-03T09:56:33.404Z,54.70
2018-08-03T09:57:36.791Z,54.60
2018-08-03T09:58:40.163Z,54.50
2018-08-03T09:59:43.535Z,54.30
2018-08-03T10:00:53.074Z,54.10
2018-08-03T10:01:56.486Z,54.10
2018-08-03T10:02:59.887Z,54.10
2018-08-03T10:04:03.247Z,54.10
2018-08-03T10:05:07.870Z,54.10
2018-08-03T10:06:13.247Z,54.10
2018-08-03T10:07:16.737Z,54.20
2018-08-03T10:08:20.373Z,54.10
2018-08-03T10:09:23.743Z,53.90
2018-08-03T10:10:28.229Z,53.90
2018-08-03T10:11:31.996Z,53.90
2018-08-03T10:12:35.423Z,53.90
2018-08-03T10:13:38.946Z,53.90
2018-08-03T10:14:42.347Z,54.20
2018-08-03T10:15:46.769Z,53.60
2018-08-03T10:16:50.159Z,53.40
2018-08-03T10:17:53.700Z,53.40
2018-08-03T10:18:57.083Z,53.20
2018-08-03T10:20:00.481Z,53.20
2018-08-03T10:21:04.999Z,53.20
2018-08-03T10:22:08.383Z,53.20
2018-08-03T10:23:11.772Z,53.20
2018-08-03T10:24:15.154Z,53.20
2018-08-03T10:25:19.431Z,53.30
2018-08-03T10:26:23.824Z,53.30
2018-08-03T10:27:27.216Z,53.20
2018-08-03T10:28:30.610Z,53.20
2018-08-03T10:29:34.052Z,53.20
2018-08-03T10:30:38.334Z,53.20
2018-08-03T10:31:41.732Z,53.20
2018-08-03T10:32:45.156Z,53.20
2018-08-03T10:33:48.524Z,53.40
2018-08-03T10:35:55.974Z,53.10
2018-08-03T10:36:59.396Z,52.80
2018-08-03T10:38:02.791Z,52.40
2018-08-03T10:40:11.539Z,52.30
2018-08-03T10:41:15.876Z,52.30
2018-08-03T10:42:19.283Z,52.30
2018-08-03T10:43:22.712Z,52.30
2018-08-03T10:44:26.088Z,52.30
2018-08-03T10:45:30.461Z,52.30
2018-08-03T10:46:33.856Z,52.30
2018-08-03T10:47:37.231Z,52.50
2018-08-03T10:48:40.632Z,52.10
2018-08-03T10:50:49.123Z,51.90
2018-08-03T10:52:55.588Z,51.40
2018-08-03T10:53:59.007Z,51.20
2018-08-03T10:56:06.843Z,50.80
2018-08-03T10:57:10.367Z,50.50
2018-08-03T10:58:14.167Z,50.40
2018-08-03T10:59:17.927Z,50.40
2018-08-03T11:00:30.311Z,50.40
2018-08-03T11:01:33.739Z,49.90
2018-08-03T11:02:37.116Z,49.50
2018-08-03T11:03:40.487Z,49.20
2018-08-03T11:04:43.890Z,49.10
2018-08-03T11:05:48.602Z,49.10
2018-08-03T11:06:52.015Z,49.10
2018-08-03T11:07:55.372Z,49.10
2018-08-03T11:08:58.744Z,49.00
2018-08-03T11:10:02.132Z,48.90
2018-08-03T11:11:06.464Z,48.90
2018-08-03T11:13:13.019Z,48.70
2018-08-03T11:14:16.387Z,48.70
2018-08-03T11:15:21.288Z,48.30
2018-08-03T11:16:25.349Z,48.30
2018-08-03T11:17:28.791Z,48.40
2018-08-03T11:18:32.178Z,48.50
2018-08-03T11:19:35.555Z,48.60
2018-08-03T11:20:40.137Z,48.70
2018-08-03T11:21:43.540Z,48.80
2018-08-03T11:22:46.974Z,48.80
2018-08-03T11:23:50.351Z,48.90
2018-08-03T11:24:53.723Z,48.70
2018-08-03T11:25:58.220Z,48.60
2018-08-03T11:27:01.608Z,48.50
2018-08-03T11:28:04.985Z,48.40
2018-08-03T11:29:08.416Z,48.20
2018-08-03T11:30:13.306Z,48.10
2018-08-03T11:31:17.666Z,48.10
2018-08-03T11:32:21.063Z,48.10
2018-08-03T11:33:24.435Z,48.00
2018-08-03T11:34:27.832Z,47.90
2018-08-03T11:35:32.159Z,47.90
2018-08-03T11:36:35.579Z,48.00
2018-08-03T11:37:39.067Z,48.10
2018-08-03T11:38:42.435Z,48.20
2018-08-03T11:39:45.802Z,48.30
2018-08-03T11:40:50.399Z,48.30
2018-08-03T11:41:53.827Z,48.30
2018-08-03T11:42:57.191Z,48.20
2018-08-03T11:44:00.559Z,48.20
2018-08-03T11:45:05.156Z,48.00
2018-08-03T11:46:09.977Z,47.80
2018-08-03T11:47:13.383Z,47.60
2018-08-03T11:50:23.890Z,47.50
2018-08-03T11:51:28.221Z,47.10
2018-08-03T11:52:31.647Z,47.10
2018-08-03T11:53:35.050Z,47.00
2018-08-03T11:54:38.443Z,47.10
2018-08-03T11:55:42.767Z,47.10
2018-08-03T11:56:46.170Z,47.00
2018-08-03T11:57:49.551Z,46.90
2018-08-03T11:58:53.130Z,46.80
2018-08-03T11:59:56.511Z,46.80
2018-08-03T12:01:00.978Z,47.30
2018-08-03T12:02:04.455Z,46.70
2018-08-03T12:03:07.843Z,46.60
2018-08-03T12:04:11.216Z,46.40
2018-08-03T12:05:15.718Z,46.40
2018-08-03T12:06:20.146Z,46.40
2018-08-03T12:09:29.875Z,46.30
2018-08-03T12:10:34.262Z,46.70
2018-08-03T12:11:37.647Z,46.70
2018-08-03T12:12:41.003Z,46.10
2018-08-03T12:13:44.403Z,46.10
2018-08-03T12:14:47.833Z,46.10
2018-08-03T12:15:52.147Z,46.10
2018-08-03T12:16:55.535Z,46.20
2018-08-03T12:17:58.997Z,46.00
2018-08-03T12:19:02.336Z,46.00
2018-08-03T12:20:05.719Z,45.80
2018-08-03T12:22:13.219Z,45.80
2018-08-03T12:23:16.716Z,45.70
2018-08-03T12:24:20.102Z,45.50
2018-08-03T12:25:24.384Z,46.00
2018-08-03T12:26:28.747Z,45.40
2018-08-03T12:27:32.119Z,45.30
2018-08-03T12:28:35.483Z,45.20
2018-08-03T12:29:39.019Z,45.10
2018-08-03T12:30:43.650Z,45.10
2018-08-03T12:31:47.203Z,45.10
2018-08-03T12:32:50.587Z,45.20
2018-08-03T12:33:54.283Z,44.80
2018-08-03T12:34:57.663Z,44.70
2018-08-03T12:36:02.126Z,44.70
2018-08-03T12:37:05.523Z,44.70
2018-08-03T12:38:08.897Z,44.60
2018-08-03T12:39:12.463Z,44.60
2018-08-03T12:40:16.885Z,44.40
2018-08-03T12:42:24.173Z,44.20
2018-08-03T12:43:27.539Z,44.20
2018-08-03T12:44:30.906Z,43.80
2018-08-03T12:45:35.845Z,43.70
2018-08-03T12:46:39.243Z,43.80
2018-08-03T12:47:42.615Z,43.90
2018-08-03T12:48:45.983Z,44.00
2018-08-03T12:49:49.375Z,44.10
2018-08-03T12:50:53.865Z,44.10
2018-08-03T12:51:57.276Z,43.90
2018-08-03T12:53:00.712Z,44.00
2018-08-03T12:54:04.051Z,44.00
2018-08-03T12:55:08.573Z,44.00
2018-08-03T12:57:15.863Z,43.50
2018-08-03T12:58:19.239Z,43.00
2018-08-03T12:59:22.615Z,42.60
2018-08-03T13:00:27.053Z,43.00
2018-08-03T13:01:30.535Z,43.10
2018-08-03T13:02:33.956Z,43.10
2018-08-03T13:03:37.296Z,43.50
2018-08-03T13:04:40.780Z,42.90
2018-08-03T13:05:45.934Z,42.40
2018-08-03T13:06:50.319Z,42.40
2018-08-03T13:07:53.818Z,42.50
2018-08-03T13:08:57.074Z,42.50
2018-08-03T13:10:00.447Z,42.20
2018-08-03T13:11:06.021Z,42.00
2018-08-03T13:14:15.743Z,41.90
2018-08-03T13:15:20.883Z,41.70
2018-08-03T13:16:24.842Z,41.60
2018-08-03T13:17:28.292Z,41.60
2018-08-03T13:18:31.663Z,41.60
2018-08-03T13:19:35.031Z,41.70
2018-08-03T13:20:39.343Z,41.60
2018-08-03T13:21:43.126Z,41.60
2018-08-03T13:22:46.518Z,41.60
2018-08-03T13:23:56.067Z,41.60
2018-08-03T13:24:59.435Z,41.70
2018-08-03T13:26:03.804Z,41.60
2018-08-03T13:27:07.212Z,41.40
2018-08-03T13:28:10.589Z,41.20
2018-08-03T13:29:13.959Z,41.10
2018-08-03T13:30:18.747Z,41.00
2018-08-03T13:31:25.071Z,41.40
2018-08-03T13:32:28.483Z,41.20
2018-08-03T13:33:31.863Z,40.80
2018-08-03T13:34:35.231Z,40.80
2018-08-03T13:35:39.776Z,40.70
2018-08-03T13:36:43.183Z,40.50
2018-08-03T13:37:46.571Z,40.30
2018-08-03T13:38:49.943Z,40.30
2018-08-03T13:39:53.376Z,40.30
2018-08-03T13:40:58.312Z,39.80
2018-08-03T13:42:01.715Z,40.40
2018-08-03T13:43:05.116Z,40.30
2018-08-03T13:44:08.488Z,40.00
2018-08-03T13:45:13.010Z,39.80
2018-08-03T13:46:17.438Z,39.60
2018-08-03T13:47:20.843Z,39.60
2018-08-03T13:48:24.240Z,39.50
2018-08-03T13:49:27.611Z,39.30
2018-08-03T13:50:32.088Z,39.20
2018-08-03T13:51:35.495Z,39.20
2018-08-03T13:53:42.143Z,39.00
2018-08-03T13:54:45.527Z,38.90
2018-08-03T13:55:49.942Z,38.80
2018-08-03T13:56:53.326Z,38.60
2018-08-03T13:57:56.775Z,38.60
2018-08-03T13:59:00.099Z,38.70
2018-08-03T14:00:03.845Z,38.90
2018-08-03T14:01:19.349Z,38.80
2018-08-03T14:02:27.163Z,38.80
2018-08-03T14:03:30.559Z,38.90
2018-08-03T14:04:33.944Z,38.80
2018-08-03T14:05:38.424Z,38.60
2018-08-03T14:06:41.807Z,38.40
2018-08-03T14:07:45.179Z,38.30
2018-08-03T14:08:49.183Z,38.30
2018-08-03T14:09:52.563Z,38.30
2018-08-03T14:10:56.885Z,38.30
2018-08-03T14:12:00.279Z,38.30
2018-08-03T14:13:03.654Z,38.60
2018-08-03T14:14:07.110Z,38.40
2018-08-03T14:15:11.628Z,38.40
2018-08-03T14:16:16.330Z,38.40
2018-08-03T14:17:19.731Z,38.40
2018-08-03T14:18:23.103Z,38.30
2018-08-03T14:19:26.488Z,38.20
2018-08-03T14:20:30.856Z,38.00
2018-08-03T14:22:37.408Z,37.90
2018-08-03T14:23:40.779Z,37.80
2018-08-03T14:24:44.167Z,37.80
2018-08-03T14:25:48.610Z,37.10
2018-08-03T14:26:52.007Z,37.10
2018-08-03T14:27:55.379Z,37.00
2018-08-03T14:28:58.759Z,37.00
2018-08-03T14:30:02.249Z,37.20
2018-08-03T14:31:06.642Z,37.40
2018-08-03T14:32:10.043Z,37.50
2018-08-03T14:33:13.479Z,37.60
2018-08-03T14:34:16.851Z,37.50
2018-08-03T14:35:22.214Z,37.60
2018-08-03T14:36:26.670Z,37.50
2018-08-03T14:37:30.052Z,37.10
2018-08-03T14:38:33.431Z,37.00
2018-08-03T14:39:36.795Z,37.00
2018-08-03T14:40:42.193Z,36.90
2018-08-03T14:41:45.595Z,36.90